createdAt,value
2019-01-19T00:00:53.616Z,74.4
2019-01-19T00:01:53.503Z,74.8
2019-01-19T00:02:53.400Z,75.1
2019-01-19T00:04:53.108Z,74.2
2019-01-19T00:08:52.197Z,72.5
2019-01-19T00:09:52.089Z,72.2
2019-01-19T00:10:52.434Z,71.8
2019-01-19T00:11:52.318Z,72.1
2019-01-19T00:12:52.218Z,72
2019-01-19T00:13:52.114Z,72.2
2019-01-19T00:14:51.998Z,72.3
2019-01-19T00:15:51.911Z,72.5
2019-01-19T00:16:51.802Z,72.5
2019-01-19T00:17:51.702Z,72.8
2019-01-19T00:18:51.596Z,73.2
2019-01-19T00:19:51.472Z,73.3
2019-01-19T00:20:51.769Z,73.4
2019-01-19T00:21:51.676Z,73.7
2019-01-19T00:22:51.569Z,74
2019-01-19T00:23:51.456Z,74.3
2019-01-19T00:24:51.412Z,74.6
2019-01-19T00:25:51.287Z,74.6
2019-01-19T00:26:51.200Z,75
2019-01-19T00:27:51.090Z,75.2
2019-01-19T00:28:50.992Z,75.2
2019-01-19T00:29:50.880Z,75.6
2019-01-19T00:30:51.194Z,75.8
2019-01-19T00:31:51.125Z,76.2
2019-01-19T00:32:51.013Z,76.2
2019-01-19T00:33:51.219Z,76.5
2019-01-19T00:34:51.139Z,76.5
2019-01-19T00:35:51.030Z,76.5
2019-01-19T00:36:50.944Z,76.1
2019-01-19T00:37:50.864Z,76.2
2019-01-19T00:38:50.740Z,76.2
2019-01-19T00:39:50.633Z,76.3
2019-01-19T00:40:50.912Z,76.4
2019-01-19T00:41:50.812Z,76.7
2019-01-19T00:42:50.716Z,77
2019-01-19T00:43:50.610Z,77
2019-01-19T00:44:50.504Z,76.8
2019-01-19T00:45:50.400Z,76.6
2019-01-19T00:46:50.280Z,76.9
2019-01-19T00:47:50.202Z,77.3
2019-01-19T00:48:50.094Z,77.6
2019-01-19T00:49:49.990Z,77.5
2019-01-19T00:50:50.282Z,77.4
2019-01-19T00:51:50.206Z,77
2019-01-19T00:52:50.102Z,76.9
2019-01-19T00:53:50.032Z,75.9
2019-01-19T00:54:49.928Z,75.3
2019-01-19T00:55:49.817Z,75.1
2019-01-19T00:57:49.422Z,74
2019-01-19T01:00:49.221Z,72.8
2019-01-19T01:01:49.098Z,73.6
2019-01-19T01:02:48.981Z,74
2019-01-19T01:03:48.949Z,74.1
2019-01-19T01:04:48.879Z,73.7
2019-01-19T01:05:48.766Z,73.6
2019-01-19T01:06:48.658Z,74
2019-01-19T01:07:48.547Z,74.2
2019-01-19T01:08:48.453Z,74.1
2019-01-19T01:09:48.377Z,74.4
2019-01-19T01:10:48.699Z,74.7
2019-01-19T01:11:48.579Z,74.6
2019-01-19T01:12:48.465Z,75
2019-01-19T01:13:48.352Z,75.1
2019-01-19T01:15:47.983Z,73.7
2019-01-19T01:17:47.592Z,72.9
2019-01-19T01:18:47.479Z,73
2019-01-19T01:20:47.523Z,72.5
2019-01-19T01:21:47.467Z,73
2019-01-19T01:22:47.392Z,72.8
2019-01-19T01:23:47.291Z,72.9
2019-01-19T01:24:47.180Z,73
2019-01-19T01:25:47.075Z,73.2
2019-01-19T01:26:46.988Z,73.3
2019-01-19T01:27:46.869Z,73.4
2019-01-19T01:28:46.735Z,73.3
2019-01-19T01:29:46.669Z,73.3
2019-01-19T01:30:46.986Z,73.4
2019-01-19T01:31:46.883Z,74
2019-01-19T01:32:46.799Z,74.2
2019-01-19T01:33:46.672Z,74.1
2019-01-19T01:34:46.550Z,73.8
2019-01-19T01:35:46.465Z,73.4
2019-01-19T01:36:46.366Z,73.3
2019-01-19T01:39:45.719Z,72.3
2019-01-19T01:40:46.035Z,72.2
2019-01-19T01:41:45.921Z,72.8
2019-01-19T01:42:45.823Z,72.7
2019-01-19T01:43:45.708Z,72.9
2019-01-19T01:44:45.595Z,73
2019-01-19T01:45:45.495Z,73.2
2019-01-19T01:46:45.381Z,73.5
2019-01-19T01:47:45.285Z,73.9
2019-01-19T01:48:45.179Z,74.3
2019-01-19T01:49:45.079Z,74.7
2019-01-19T01:50:45.434Z,75.8
2019-01-19T01:51:45.307Z,75.2
2019-01-19T01:52:45.233Z,75.1
2019-01-19T01:53:45.107Z,74.8
2019-01-19T01:54:45.010Z,74.9
2019-01-19T01:55:44.885Z,75.1
2019-01-19T01:56:44.765Z,75.4
2019-01-19T01:57:44.639Z,76
2019-01-19T01:58:44.542Z,76.4
2019-01-19T01:59:44.463Z,76.5
2019-01-19T02:00:44.844Z,76.3
2019-01-19T02:01:44.736Z,76
2019-01-19T02:02:44.626Z,75.8
2019-01-19T02:03:44.525Z,75.6
2019-01-19T02:04:44.461Z,75.6
2019-01-19T02:05:44.353Z,75.6
2019-01-19T02:06:44.239Z,75.8
2019-01-19T02:07:44.119Z,76
2019-01-19T02:08:44.005Z,76.3
2019-01-19T02:09:43.897Z,76.7
2019-01-19T02:10:44.242Z,77.2
2019-01-19T02:11:44.149Z,77.8
2019-01-19T02:12:44.027Z,78.4
2019-01-19T02:13:43.917Z,78.9
2019-01-19T02:14:43.799Z,79.3
2019-01-19T02:15:43.721Z,79.4
2019-01-19T02:16:43.607Z,79.2
2019-01-19T02:17:43.487Z,79.4
2019-01-19T02:18:43.378Z,80.1
2019-01-19T02:19:43.273Z,80.3
2019-01-19T02:20:43.579Z,80.2
2019-01-19T02:21:43.471Z,80.5
2019-01-19T02:22:43.348Z,80.3
2019-01-19T02:23:43.237Z,79.9
2019-01-19T02:24:43.125Z,79.5
2019-01-19T02:25:43.010Z,79.3
2019-01-19T02:26:42.921Z,79.3
2019-01-19T02:27:42.795Z,79.4
2019-01-19T02:28:42.663Z,79.5
2019-01-19T02:29:42.551Z,79.4
2019-01-19T02:30:42.878Z,79.2
2019-01-19T02:31:42.790Z,79.3
2019-01-19T02:32:42.688Z,79.4
2019-01-19T02:33:42.599Z,79.3
2019-01-19T02:40:48.375Z,75.8
2019-01-19T02:41:48.260Z,76.5
2019-01-19T02:42:48.157Z,76.7
2019-01-19T02:43:48.083Z,76.7
2019-01-19T02:44:48.006Z,76.6
2019-01-19T02:45:47.918Z,76.9
2019-01-19T02:46:47.800Z,76.8
2019-01-19T02:47:47.688Z,76.7
2019-01-19T02:48:47.620Z,76.7
2019-01-19T02:49:48.312Z,76.6
2019-01-19T02:50:48.660Z,76.4
2019-01-19T02:51:48.558Z,76.5
2019-01-19T02:52:48.461Z,76.7
2019-01-19T02:53:48.390Z,77
2019-01-19T02:54:48.362Z,77.2
2019-01-19T02:55:48.281Z,77.4
2019-01-19T02:56:48.273Z,77.6
2019-01-19T02:57:48.166Z,77.6
2019-01-19T02:58:48.080Z,77.5
2019-01-19T02:59:48.073Z,78
2019-01-19T03:00:48.399Z,77.6
2019-01-19T03:01:48.300Z,77.6
2019-01-19T03:02:48.227Z,78.9
2019-01-19T03:03:48.122Z,77
2019-01-19T03:04:48.035Z,76.6
2019-01-19T03:05:47.959Z,76.1
2019-01-19T03:06:47.842Z,76
2019-01-19T03:10:47.355Z,74.9
2019-01-19T03:11:47.260Z,75.4
2019-01-19T03:12:47.169Z,75.4
2019-01-19T03:13:47.052Z,75.7
2019-01-19T03:14:46.944Z,76.1
2019-01-19T03:15:46.857Z,75.9
2019-01-19T03:16:46.774Z,76.3
2019-01-19T03:17:46.687Z,76.2
2019-01-19T03:18:46.587Z,76.2
2019-01-19T03:19:46.481Z,76.3
2019-01-19T03:20:46.779Z,76.6
2019-01-19T03:21:46.699Z,77
2019-01-19T03:22:46.603Z,77
2019-01-19T03:23:46.511Z,77.2
2019-01-19T03:24:46.446Z,76.5
2019-01-19T03:26:46.102Z,75.7
2019-01-19T03:28:45.732Z,75.5
2019-01-19T03:29:45.639Z,75.2
2019-01-19T03:30:45.985Z,75
2019-01-19T03:31:45.919Z,75.5
2019-01-19T03:32:45.874Z,75.7
2019-01-19T03:33:45.794Z,76.1
2019-01-19T03:34:45.710Z,76.3
2019-01-19T03:35:45.586Z,76.2
2019-01-19T03:36:45.566Z,76.3
2019-01-19T03:37:45.484Z,76.7
2019-01-19T03:38:45.366Z,76.7
2019-01-19T03:39:45.248Z,76.9
2019-01-19T03:40:45.568Z,77
2019-01-19T03:41:45.473Z,77.3
2019-01-19T03:42:45.372Z,77.3
2019-01-19T03:43:45.264Z,76.7
2019-01-19T03:44:45.166Z,76.4
2019-01-19T03:46:44.839Z,76
2019-01-19T03:47:44.732Z,75.6
2019-01-19T03:48:44.704Z,75.2
2019-01-19T03:50:44.758Z,75.4
2019-01-19T03:51:44.636Z,76
2019-01-19T03:52:44.540Z,76.2
2019-01-19T03:53:44.419Z,76.2
2019-01-19T03:54:44.349Z,76.4
2019-01-19T03:55:44.246Z,76.3
2019-01-19T03:56:44.130Z,76.4
2019-01-19T03:57:44.032Z,76.3
2019-01-19T03:58:43.911Z,76.7
2019-01-19T03:59:43.804Z,77.1
2019-01-19T04:00:44.230Z,76.7
2019-01-19T04:01:44.115Z,76.4
2019-01-19T04:02:44.029Z,76.5
2019-01-19T04:03:44.006Z,76.7
2019-01-19T04:04:43.902Z,76.9
2019-01-19T04:05:43.818Z,77.5
2019-01-19T04:06:43.734Z,77.8
2019-01-19T04:07:43.684Z,78
2019-01-19T04:08:43.583Z,78.2
2019-01-19T04:09:43.479Z,78.3
2019-01-19T04:10:43.958Z,78.2
2019-01-19T04:11:43.852Z,78.2
2019-01-19T04:12:43.805Z,78.4
2019-01-19T04:13:43.705Z,77.3
2019-01-19T04:14:43.594Z,77.2
2019-01-19T04:19:42.424Z,75.2
2019-01-19T04:20:42.737Z,74.7
2019-01-19T04:21:42.660Z,75.2
2019-01-19T04:22:42.552Z,75.4
2019-01-19T04:23:42.444Z,75.5
2019-01-19T04:24:42.327Z,75
2019-01-19T04:25:42.233Z,74.7
2019-01-19T04:26:42.149Z,75.4
2019-01-19T04:27:42.072Z,76
2019-01-19T04:28:41.952Z,76.3
2019-01-19T04:29:41.830Z,76.2
2019-01-19T04:30:42.188Z,76.3
2019-01-19T04:31:42.096Z,76.5
2019-01-19T04:32:42.009Z,76.8
2019-01-19T04:33:41.958Z,76.8
2019-01-19T04:34:41.890Z,76.6
2019-01-19T04:35:41.808Z,76.3
2019-01-19T04:36:41.717Z,76.3
2019-01-19T04:37:41.634Z,76.2
2019-01-19T04:38:41.569Z,76.1
2019-01-19T04:39:41.468Z,76.3
2019-01-19T04:40:41.800Z,76.7
2019-01-19T04:41:41.694Z,77
2019-01-19T04:42:41.601Z,78
2019-01-19T04:43:41.548Z,78.3
2019-01-19T04:44:41.504Z,77.6
2019-01-19T04:45:41.388Z,77.4
2019-01-19T04:46:41.359Z,77.8
2019-01-19T04:47:41.268Z,77.8
2019-01-19T04:48:41.185Z,77.1
2019-01-19T04:49:41.096Z,77
2019-01-19T04:50:41.388Z,77.3
2019-01-19T04:51:41.282Z,77.5
2019-01-19T04:52:41.180Z,77.4
2019-01-19T04:53:41.109Z,77
2019-01-19T04:54:41.012Z,77.5
2019-01-19T04:55:40.930Z,78
2019-01-19T04:56:40.813Z,78.3
2019-01-19T04:57:40.715Z,77.8
2019-01-19T04:58:40.622Z,77.7
2019-01-19T04:59:40.511Z,77.8
2019-01-19T05:00:40.836Z,77.4
2019-01-19T05:01:40.721Z,77.6
2019-01-19T05:02:40.610Z,77.7
2019-01-19T05:03:40.508Z,77.9
2019-01-19T05:04:40.465Z,77.7
2019-01-19T05:05:40.361Z,77.9
2019-01-19T05:06:40.287Z,78.2
2019-01-19T05:07:40.175Z,78.5
2019-01-19T05:08:40.072Z,78.3
2019-01-19T05:09:39.989Z,78.3
2019-01-19T05:10:40.376Z,78
2019-01-19T05:11:40.286Z,77.8
2019-01-19T05:12:40.166Z,78
2019-01-19T05:13:40.046Z,78.2
2019-01-19T05:14:39.955Z,78.3
2019-01-19T05:15:39.867Z,78
2019-01-19T05:16:39.758Z,77.6
2019-01-19T05:17:39.667Z,78.5
2019-01-19T05:18:39.584Z,78
2019-01-19T05:19:39.468Z,78.1
2019-01-19T05:20:39.872Z,78.3
2019-01-19T05:21:39.785Z,78.7
2019-01-19T05:22:39.720Z,78.8
2019-01-19T05:23:39.599Z,78.8
2019-01-19T05:24:39.492Z,78.8
2019-01-19T05:25:39.375Z,78.7
2019-01-19T05:26:39.283Z,78.7
2019-01-19T05:27:39.164Z,78.5
2019-01-19T05:28:39.076Z,78.1
2019-01-19T05:29:38.985Z,78.4
2019-01-19T05:30:39.360Z,78.5
2019-01-19T05:31:39.354Z,78.8
2019-01-19T05:32:39.250Z,78.1
2019-01-19T05:40:38.596Z,74.5
2019-01-19T05:41:38.529Z,75.3
2019-01-19T05:42:38.484Z,76
2019-01-19T05:43:38.364Z,76
2019-01-19T05:44:38.255Z,75.6
2019-01-19T05:45:38.173Z,75.3
2019-01-19T05:46:38.073Z,75.2
2019-01-19T05:47:37.974Z,76.6
2019-01-19T05:48:37.886Z,76.1
2019-01-19T05:49:37.768Z,76
2019-01-19T05:50:38.096Z,76.3
2019-01-19T05:51:37.981Z,76.5
2019-01-19T05:52:37.878Z,76.6
2019-01-19T05:53:37.781Z,76.3
2019-01-19T05:54:37.658Z,76.2
2019-01-19T05:55:37.555Z,76.2
2019-01-19T05:56:37.447Z,76.9
2019-01-19T05:57:37.439Z,76.7
2019-01-19T05:58:37.355Z,76.5
2019-01-19T05:59:37.242Z,77.9
2019-01-19T06:00:37.557Z,77
2019-01-19T06:01:37.455Z,76.9
2019-01-19T06:02:37.361Z,77
2019-01-19T06:03:37.248Z,77.3
2019-01-19T06:04:37.160Z,77.2
2019-01-19T06:05:37.077Z,77.3
2019-01-19T06:06:36.975Z,77.4
2019-01-19T06:07:36.972Z,77.4
2019-01-19T06:08:36.882Z,77.2
2019-01-19T06:09:36.807Z,77.3
2019-01-19T06:10:37.124Z,77.3
2019-01-19T06:11:37.127Z,77.5
2019-01-19T06:12:37.040Z,77.3
2019-01-19T06:13:36.979Z,77
2019-01-19T06:14:36.887Z,77
2019-01-19T06:15:36.771Z,77.5
2019-01-19T06:16:36.677Z,77.6
2019-01-19T06:17:36.568Z,77.9
2019-01-19T06:18:36.459Z,77.9
2019-01-19T06:19:36.370Z,78.3
2019-01-19T06:20:36.733Z,78.4
2019-01-19T06:21:36.685Z,78.1
2019-01-19T06:22:36.601Z,77.7
2019-01-19T06:23:36.511Z,77.8
2019-01-19T06:24:36.411Z,78
2019-01-19T06:25:36.319Z,77.8
2019-01-19T06:26:36.274Z,77.6
2019-01-19T06:27:36.215Z,77.1
2019-01-19T06:28:36.121Z,77.1
2019-01-19T06:29:36.015Z,77.5
2019-01-19T06:30:36.379Z,77.6
2019-01-19T06:31:36.297Z,77.6
2019-01-19T06:32:36.182Z,77.9
2019-01-19T06:33:36.079Z,78.1
2019-01-19T06:34:35.985Z,78.1
2019-01-19T06:35:35.877Z,78
2019-01-19T06:36:35.797Z,78.2
2019-01-19T06:37:35.682Z,78.3
2019-01-19T06:38:35.566Z,78.3
2019-01-19T06:39:35.479Z,78.5
2019-01-19T06:40:35.833Z,78.4
2019-01-19T06:41:35.741Z,78.3
2019-01-19T06:42:35.633Z,77.9
2019-01-19T06:43:35.511Z,78.3
2019-01-19T06:44:35.396Z,78.5
2019-01-19T06:45:35.314Z,78.5
2019-01-19T06:46:35.220Z,78.3
2019-01-19T06:47:35.111Z,77.9
2019-01-19T06:48:35.019Z,78.1
2019-01-19T06:49:34.904Z,78.2
2019-01-19T06:50:35.203Z,78.4
2019-01-19T06:51:35.124Z,78.7
2019-01-19T06:52:35.009Z,78.7
2019-01-19T06:53:34.907Z,78.4
2019-01-19T06:54:34.865Z,78.4
2019-01-19T06:55:34.754Z,78.6
2019-01-19T06:56:34.660Z,78.8
2019-01-19T06:57:34.575Z,78
2019-01-19T06:58:34.474Z,78.1
2019-01-19T06:59:34.355Z,78.5
2019-01-19T07:00:34.666Z,78.3
2019-01-19T07:01:34.565Z,78.4
2019-01-19T07:02:34.487Z,78.7
2019-01-19T07:03:34.385Z,78.7
2019-01-19T07:04:34.265Z,78.5
2019-01-19T07:05:34.153Z,78.8
2019-01-19T07:06:34.059Z,78.9
2019-01-19T07:07:33.973Z,78.8
2019-01-19T07:08:33.944Z,78.3
2019-01-19T07:09:33.821Z,78.1
2019-01-19T07:10:34.164Z,78.3
2019-01-19T07:11:34.059Z,78.4
2019-01-19T07:14:33.410Z,77
2019-01-19T07:20:32.437Z,75.6
2019-01-19T07:21:32.331Z,76.2
2019-01-19T07:22:32.250Z,76.5
2019-01-19T07:23:32.159Z,76.7
2019-01-19T07:24:32.080Z,76.8
2019-01-19T07:25:31.972Z,76.8
2019-01-19T07:26:31.931Z,76.8
2019-01-19T07:27:31.838Z,76.8
2019-01-19T07:28:31.717Z,76.8
2019-01-19T07:29:31.628Z,76.9
2019-01-19T07:30:31.941Z,77.2
2019-01-19T07:31:31.827Z,77.4
2019-01-19T07:32:31.703Z,77.5
2019-01-19T07:33:31.599Z,77.6
2019-01-19T07:34:31.530Z,77.6
2019-01-19T07:35:31.437Z,77.7
2019-01-19T07:36:31.331Z,77.7
2019-01-19T07:37:31.236Z,77.7
2019-01-19T07:38:31.113Z,77.7
2019-01-19T07:39:31.003Z,78
2019-01-19T07:40:31.367Z,78.1
2019-01-19T07:41:31.245Z,78.3
2019-01-19T07:42:31.140Z,78.2
2019-01-19T07:43:31.094Z,78.1
2019-01-19T07:44:30.987Z,78
2019-01-19T07:45:30.887Z,78.1
2019-01-19T07:46:30.763Z,77.7
2019-01-19T07:47:30.665Z,77.8
2019-01-19T07:48:30.550Z,77.9
2019-01-19T07:49:30.447Z,77.7
2019-01-19T07:50:30.803Z,77.8
2019-01-19T07:51:30.695Z,77.4
2019-01-19T07:52:30.603Z,77.4
2019-01-19T07:53:30.526Z,78.1
2019-01-19T07:54:30.405Z,77.9
2019-01-19T07:55:30.301Z,77.1
2019-01-19T07:56:30.229Z,77.1
2019-01-19T07:57:32.127Z,76.8
2019-01-19T07:58:32.017Z,76.9
2019-01-19T07:59:31.915Z,76.8
2019-01-19T08:00:32.238Z,76.6
2019-01-19T08:01:32.165Z,76.5
2019-01-19T08:03:31.794Z,75.3
2019-01-19T08:04:31.689Z,74.4
2019-01-19T08:10:30.730Z,72.2
2019-01-19T08:11:30.642Z,72.8
2019-01-19T08:12:30.541Z,72.8
2019-01-19T08:13:30.426Z,73.2
2019-01-19T08:14:30.316Z,73.2
2019-01-19T08:15:30.321Z,73.1
2019-01-19T08:16:30.214Z,73.2
2019-01-19T08:17:30.109Z,73.4
2019-01-19T08:18:30.019Z,73.4
2019-01-19T08:19:29.926Z,74
2019-01-19T08:20:30.259Z,74
2019-01-19T08:21:30.147Z,73.7
2019-01-19T08:22:30.109Z,73.8
2019-01-19T08:23:30.027Z,73.6
2019-01-19T08:24:29.917Z,73.8
2019-01-19T08:25:29.800Z,73.9
2019-01-19T08:26:29.690Z,74.1
2019-01-19T08:27:29.589Z,73.9
2019-01-19T08:28:29.509Z,74.8
2019-01-19T08:29:29.391Z,74.1
2019-01-19T08:30:29.763Z,74.7
2019-01-19T08:31:29.665Z,74.8
2019-01-19T08:32:29.606Z,74.8
2019-01-19T08:33:29.495Z,75.3
2019-01-19T08:34:29.403Z,75
2019-01-19T08:35:29.286Z,74.8
2019-01-19T08:36:29.173Z,74.8
2019-01-19T08:37:29.081Z,74.7
2019-01-19T08:38:28.960Z,75
2019-01-19T08:39:28.872Z,75.1
2019-01-19T08:40:29.175Z,75.3
2019-01-19T08:41:29.077Z,75.3
2019-01-19T08:42:28.958Z,75.3
2019-01-19T08:43:28.895Z,75.2
2019-01-19T08:44:28.773Z,75.3
2019-01-19T08:45:28.705Z,75.4
2019-01-19T08:46:28.590Z,75.1
2019-01-19T08:47:28.483Z,75.1
2019-01-19T08:48:28.382Z,75.3
2019-01-19T08:49:28.288Z,75.2
2019-01-19T08:50:28.606Z,75.2
2019-01-19T08:51:28.518Z,75.3
2019-01-19T08:52:28.476Z,75.4
2019-01-19T08:53:28.387Z,75.3
2019-01-19T08:54:28.282Z,75.2
2019-01-19T08:55:28.205Z,76.1
2019-01-19T08:56:28.124Z,75.5
2019-01-19T08:57:28.023Z,75.4
2019-01-19T08:58:27.920Z,75.8
2019-01-19T08:59:27.805Z,75.8
2019-01-19T09:00:28.117Z,75.6
2019-01-19T09:01:28.019Z,75.5
2019-01-19T09:02:27.966Z,76
2019-01-19T09:03:27.867Z,76.1
2019-01-19T09:04:27.757Z,75.5
2019-01-19T09:05:27.635Z,75
2019-01-19T09:06:27.545Z,74.5
2019-01-19T09:10:34.173Z,72.3
2019-01-19T09:11:34.172Z,72.9
2019-01-19T09:12:34.079Z,73.1
2019-01-19T09:13:33.973Z,73.4
2019-01-19T09:14:33.866Z,73.4
2019-01-19T09:15:33.743Z,73.3
2019-01-19T09:16:42.259Z,73.4
2019-01-19T09:17:42.151Z,72.7
2019-01-19T09:18:42.047Z,72.5
2019-01-19T09:19:41.948Z,72.7
2019-01-19T09:20:42.277Z,72.4
2019-01-19T09:21:42.187Z,72.4
2019-01-19T09:22:42.096Z,72.1
2019-01-19T09:23:41.993Z,71.6
2019-01-19T09:24:41.872Z,71.7
2019-01-19T09:25:41.755Z,71.5
2019-01-19T09:26:41.641Z,71.6
2019-01-19T09:27:41.545Z,72
2019-01-19T09:28:41.453Z,72.3
2019-01-19T09:29:41.347Z,72.5
2019-01-19T09:30:41.659Z,72.6
2019-01-19T09:31:41.547Z,72.6
2019-01-19T09:32:41.475Z,72.1
2019-01-19T09:33:41.367Z,71.9
2019-01-19T09:34:41.267Z,71.5
2019-01-19T09:35:41.158Z,71.5
2019-01-19T09:36:41.047Z,71.3
2019-01-19T09:37:41.629Z,71.3
2019-01-19T09:38:41.547Z,70.9
2019-01-19T09:39:41.451Z,70.5
2019-01-19T09:40:41.802Z,70.3
2019-01-19T09:41:41.705Z,70.8
2019-01-19T09:42:41.633Z,70.4
2019-01-19T09:43:41.542Z,70
2019-01-19T09:44:41.432Z,70
2019-01-19T09:45:41.342Z,70.1
2019-01-19T09:46:41.227Z,70
2019-01-19T09:47:41.143Z,70.2
2019-01-19T09:48:41.040Z,70.5
2019-01-19T09:49:40.925Z,70.7
2019-01-19T09:50:41.259Z,70.8
2019-01-19T09:51:41.153Z,70.8
2019-01-19T09:52:41.107Z,70.9
2019-01-19T09:53:41.000Z,70.8
2019-01-19T09:54:40.919Z,71
2019-01-19T09:55:40.817Z,71
2019-01-19T09:56:40.738Z,71.1
2019-01-19T09:57:40.615Z,71.3
2019-01-19T09:58:40.520Z,71.2
2019-01-19T09:59:40.420Z,71.6
2019-01-19T10:00:46.427Z,71.7
2019-01-19T10:01:47.310Z,71.8
2019-01-19T10:02:47.205Z,71.9
2019-01-19T10:03:47.080Z,71.6
2019-01-19T10:04:46.961Z,71.4
2019-01-19T10:05:46.868Z,71.4
2019-01-19T10:06:48.356Z,71.2
2019-01-19T10:07:49.468Z,71.3
2019-01-19T10:08:49.372Z,71.4
2019-01-19T10:09:49.276Z,71.7
2019-01-19T10:10:49.697Z,71.9
2019-01-19T10:11:49.608Z,71.8
2019-01-19T10:12:49.500Z,72
2019-01-19T10:13:49.390Z,72.1
2019-01-19T10:14:49.309Z,72.1
2019-01-19T10:15:49.216Z,72.2
2019-01-19T10:16:49.108Z,72.8
2019-01-19T10:17:49.000Z,73
2019-01-19T10:18:48.960Z,72.7
2019-01-19T10:19:48.858Z,72.4
2019-01-19T10:20:49.198Z,72.2
2019-01-19T10:21:49.116Z,72
2019-01-19T10:22:49.011Z,72
2019-01-19T10:23:48.890Z,71.9
2019-01-19T10:24:48.816Z,72.2
2019-01-19T10:25:48.760Z,72.3
2019-01-19T10:26:48.685Z,72.4
2019-01-19T10:27:48.579Z,72
2019-01-19T10:28:48.476Z,71.9
2019-01-19T10:29:48.362Z,71.8
2019-01-19T10:30:48.662Z,72.1
2019-01-19T10:31:48.568Z,72.1
2019-01-19T10:32:48.476Z,72
2019-01-19T10:33:48.378Z,71.9
2019-01-19T10:34:48.253Z,71.6
2019-01-19T10:35:48.156Z,71.6
2019-01-19T10:36:48.318Z,71.8
2019-01-19T10:37:56.832Z,71.8
2019-01-19T10:38:57.036Z,71.5
2019-01-19T10:39:56.914Z,71.2
2019-01-19T10:40:57.222Z,71.1
2019-01-19T10:41:57.130Z,71.6
2019-01-19T10:42:57.038Z,71.4
2019-01-19T10:43:56.932Z,71.2
2019-01-19T10:44:56.840Z,71.1
2019-01-19T10:45:56.725Z,71.1
2019-01-19T10:46:56.609Z,71.1
2019-01-19T10:47:56.513Z,71.1
2019-01-19T10:48:56.408Z,71
2019-01-19T10:49:56.303Z,71.2
2019-01-19T10:50:56.616Z,71.3
2019-01-19T10:52:00.209Z,71.1
2019-01-19T10:53:00.123Z,71.3
2019-01-19T10:54:00.020Z,71.2
2019-01-19T10:54:59.928Z,71
2019-01-19T10:55:59.933Z,71.2
2019-01-19T10:56:59.824Z,71.1
2019-01-19T10:57:59.956Z,70.9
2019-01-19T10:58:59.844Z,70.3
2019-01-19T10:59:59.751Z,70.1
2019-01-19T11:01:00.136Z,70.4
2019-01-19T11:02:04.952Z,70.9
2019-01-19T11:03:04.857Z,70.9
2019-01-19T11:04:04.726Z,70.7
2019-01-19T11:05:04.622Z,70.5
2019-01-19T11:06:04.510Z,70.1
2019-01-19T11:07:04.400Z,70.5
2019-01-19T11:08:04.862Z,69.7
2019-01-19T11:09:06.512Z,69.7
2019-01-19T11:10:06.410Z,69.7
2019-01-19T11:11:07.189Z,70.1
2019-01-19T11:12:07.082Z,69.1
2019-01-19T11:13:07.010Z,69.1
2019-01-19T11:14:06.925Z,68.5
2019-01-19T11:15:06.841Z,68.5
2019-01-19T11:16:06.753Z,69
2019-01-19T11:17:06.638Z,68.4
2019-01-19T11:18:06.532Z,67
2019-01-19T11:19:07.494Z,67.3
2019-01-19T11:20:07.386Z,67.5
2019-01-19T11:21:07.694Z,68
2019-01-19T11:22:07.589Z,68.2
2019-01-19T11:23:07.488Z,68.1
2019-01-19T11:24:07.390Z,67.4
2019-01-19T11:25:07.308Z,67.9
2019-01-19T11:26:07.186Z,67
2019-01-19T11:27:07.066Z,67.7
2019-01-19T11:28:06.952Z,66.7
2019-01-19T11:29:06.829Z,67.2
2019-01-19T11:30:06.724Z,67.2
2019-01-19T11:31:07.034Z,67.4
2019-01-19T11:32:06.906Z,66.8
2019-01-19T11:33:06.813Z,67.4
2019-01-19T11:34:06.755Z,66.6
2019-01-19T11:35:06.660Z,67
2019-01-19T11:36:06.590Z,66.5
2019-01-19T11:41:20.426Z,64.8
2019-01-19T11:42:20.338Z,65.5
2019-01-19T11:44:19.968Z,65.8
2019-01-19T11:45:19.864Z,65.8
2019-01-19T11:46:19.778Z,65.4
2019-01-19T11:47:19.688Z,65.5
2019-01-19T11:48:20.044Z,65.6
2019-01-19T11:49:19.925Z,66.2
2019-01-19T11:50:19.783Z,66.2
2019-01-19T11:51:19.676Z,66.3
2019-01-19T11:52:19.577Z,66.9
2019-01-19T11:53:19.470Z,66.1
2019-01-19T11:54:19.397Z,66
2019-01-19T11:55:19.285Z,66.3
2019-01-19T11:56:19.183Z,66.6
2019-01-19T11:57:19.112Z,65.9
2019-01-19T11:58:19.434Z,66
2019-01-19T11:59:19.321Z,66.2
2019-01-19T12:00:19.200Z,65.7
2019-01-19T12:01:19.106Z,66.3
2019-01-19T12:02:19.003Z,65.5
2019-01-19T12:03:18.926Z,65.3
2019-01-19T12:05:18.544Z,65
2019-01-19T12:06:18.433Z,64.1
2019-01-19T12:07:19.120Z,64
2019-01-19T12:08:20.521Z,64.3
2019-01-19T12:09:20.410Z,65
2019-01-19T12:10:20.372Z,65.4
2019-01-19T12:11:20.251Z,65.6
2019-01-19T12:12:20.132Z,65.4
2019-01-19T12:13:20.039Z,65.7
2019-01-19T12:14:19.929Z,66
2019-01-19T12:15:19.831Z,66
2019-01-19T12:16:19.747Z,66
2019-01-19T12:17:19.883Z,65.7
2019-01-19T12:18:20.196Z,65.7
2019-01-19T12:19:20.100Z,65.6
2019-01-19T12:20:20.230Z,65.9
2019-01-19T12:21:20.124Z,66.6
2019-01-19T12:22:20.020Z,66.7
2019-01-19T12:23:19.900Z,66.7
2019-01-19T12:24:19.805Z,67
2019-01-19T12:25:19.708Z,66.7
2019-01-19T12:26:19.588Z,67
2019-01-19T12:27:19.477Z,66.9
2019-01-19T12:28:19.816Z,66.7
2019-01-19T12:29:19.749Z,66.4
2019-01-19T12:30:19.638Z,66.8
2019-01-19T12:31:19.538Z,67.1
2019-01-19T12:32:19.477Z,67.2
2019-01-19T12:33:19.359Z,67.2
2019-01-19T12:34:19.250Z,66.9
2019-01-19T12:35:19.200Z,67.4
2019-01-19T12:36:19.086Z,67.7
2019-01-19T12:37:18.979Z,66.9
2019-01-19T12:38:19.292Z,67
2019-01-19T12:39:26.926Z,67.4
2019-01-19T12:40:26.834Z,67.2
2019-01-19T12:41:26.724Z,67.1
2019-01-19T12:42:26.614Z,67.1
2019-01-19T12:43:26.551Z,67.4
2019-01-19T12:44:26.450Z,67.3
2019-01-19T12:45:26.373Z,67
2019-01-19T12:46:26.270Z,66.9
2019-01-19T12:47:26.222Z,67.1
2019-01-19T12:48:26.540Z,67.3
2019-01-19T12:49:26.430Z,67.3
2019-01-19T12:50:26.395Z,66.9
2019-01-19T12:51:26.338Z,66.9
2019-01-19T12:52:26.221Z,66.3
2019-01-19T12:53:26.399Z,66
2019-01-19T12:54:26.356Z,65.9
2019-01-19T12:55:26.266Z,65.9
2019-01-19T12:56:26.181Z,65.8
2019-01-19T12:57:26.196Z,65.4
2019-01-19T12:58:26.718Z,65.1
2019-01-19T12:59:26.626Z,65.4
2019-01-19T13:00:26.530Z,65.8
2019-01-19T13:01:26.421Z,66.2
2019-01-19T13:02:26.301Z,66.3
2019-01-19T13:03:26.194Z,66.7
2019-01-19T13:04:26.079Z,66.9
2019-01-19T13:05:26.113Z,66.4
2019-01-19T13:06:26.019Z,65.9
2019-01-19T13:07:26.168Z,65.4
2019-01-19T13:08:34.140Z,65.6
2019-01-19T13:09:34.578Z,65.8
2019-01-19T13:10:34.945Z,65.8
2019-01-19T13:11:34.911Z,65.5
2019-01-19T13:12:34.782Z,65.6
2019-01-19T13:13:34.671Z,66.1
2019-01-19T13:14:34.541Z,66
2019-01-19T13:15:34.464Z,66.1
2019-01-19T13:16:34.743Z,66.3
2019-01-19T13:17:35.074Z,66.6
2019-01-19T13:18:35.545Z,66.9
2019-01-19T13:19:35.436Z,66.9
2019-01-19T13:20:35.356Z,66.9
2019-01-19T13:21:35.570Z,66.8
2019-01-19T13:22:35.446Z,66.9
2019-01-19T13:23:35.319Z,67
2019-01-19T13:24:35.205Z,66.7
2019-01-19T13:25:35.088Z,66.8
2019-01-19T13:26:35.208Z,66.9
2019-01-19T13:27:35.204Z,66.8
2019-01-19T13:28:35.521Z,66.9
2019-01-19T13:29:35.422Z,67.1
2019-01-19T13:30:35.308Z,66.9
2019-01-19T13:31:35.533Z,67
2019-01-19T13:32:35.909Z,67
2019-01-19T13:33:35.951Z,66.8
2019-01-19T13:34:35.857Z,66.9
2019-01-19T13:35:35.742Z,66.7
2019-01-19T13:36:36.115Z,67.1
2019-01-19T13:37:36.015Z,67
2019-01-19T13:38:42.766Z,67.2
2019-01-19T13:39:42.677Z,67.5
2019-01-19T13:40:42.585Z,67.4
2019-01-19T13:41:42.509Z,67.8
2019-01-19T13:42:42.405Z,67.8
2019-01-19T13:43:42.318Z,68.2
2019-01-19T13:44:42.464Z,68
2019-01-19T13:45:42.362Z,67.8
2019-01-19T13:46:43.944Z,67.6
2019-01-19T13:47:43.878Z,67.4
2019-01-19T13:48:44.222Z,67.5
2019-01-19T13:49:44.120Z,67.5
2019-01-19T14:00:43.005Z,63.9
2019-01-19T14:06:41.506Z,62.8
2019-01-19T14:08:41.524Z,63.2
2019-01-19T14:09:41.432Z,62.8
2019-01-19T14:10:41.377Z,62.6
2019-01-19T14:12:41.011Z,62.9
2019-01-19T14:13:40.913Z,63
2019-01-19T14:14:40.865Z,62.9
2019-01-19T14:15:40.800Z,62.9
2019-01-19T14:17:40.466Z,63.6
2019-01-19T14:18:40.791Z,64.1
2019-01-19T14:19:41.407Z,64
2019-01-19T14:20:41.336Z,64
2019-01-19T14:21:41.228Z,63.9
2019-01-19T14:22:41.120Z,63.5
2019-01-19T14:23:41.011Z,62.9
2019-01-19T14:24:40.889Z,63
2019-01-19T14:25:40.821Z,63.2
2019-01-19T14:26:40.713Z,63.2
2019-01-19T14:29:40.560Z,63.2
2019-01-19T14:30:40.457Z,63
2019-01-19T14:31:40.352Z,62.8
2019-01-19T14:32:40.242Z,62.5
2019-01-19T14:33:40.143Z,62
2019-01-19T14:34:40.027Z,61.8
2019-01-19T14:35:39.913Z,61.6
2019-01-19T14:36:39.813Z,62
2019-01-19T14:38:39.867Z,61.6
2019-01-19T14:39:39.782Z,62.1
2019-01-19T14:40:39.683Z,62
2019-01-19T14:41:39.563Z,62.2
2019-01-19T14:42:39.486Z,62.3
2019-01-19T14:43:39.374Z,62.7
2019-01-19T14:44:39.269Z,63
2019-01-19T14:45:39.157Z,62.8